createdAt,value
2023-02-11T00:01:13.400Z,1023.31
2023-02-11T00:06:14.136Z,1023.21
2023-02-11T00:11:14.836Z,1023.34
2023-02-11T00:16:15.584Z,1023.64
2023-02-11T00:21:16.262Z,1023.66
2023-02-11T00:26:17.007Z,1023.43
2023-02-11T00:31:17.839Z,1023.26
2023-02-11T00:36:18.623Z,1023.20
2023-02-11T00:41:19.376Z,1023.18
2023-02-11T00:46:20.199Z,1023.26
2023-02-11T00:51:20.886Z,1023.38
2023-02-11T00:56:21.612Z,1023.36
2023-02-11T01:01:22.401Z,1023.25
2023-02-11T01:06:23.144Z,1022.92
2023-02-11T01:11:23.863Z,1022.72
2023-02-11T01:16:24.650Z,1022.54
2023-02-11T01:21:25.437Z,1022.46
2023-02-11T01:26:26.138Z,1022.52
2023-02-11T01:31:26.900Z,1022.40
2023-02-11T01:36:27.619Z,1022.44
2023-02-11T01:41:28.349Z,1022.38
2023-02-11T01:46:29.089Z,1022.30
2023-02-11T01:51:29.804Z,1022.38
2023-02-11T01:56:30.534Z,1022.45
2023-02-11T02:01:31.343Z,1022.29
2023-02-11T02:06:32.016Z,1022.18
2023-02-11T02:11:32.734Z,1022.39
2023-02-11T02:16:33.568Z,1022.27
2023-02-11T02:21:34.290Z,1022.26
2023-02-11T02:26:35.022Z,1022.19
2023-02-11T02:31:35.757Z,1022.08
2023-02-11T02:36:36.498Z,1022.06
2023-02-11T02:41:37.174Z,1022.01
2023-02-11T02:46:37.975Z,1021.85
2023-02-11T02:51:38.685Z,1021.87
2023-02-11T02:56:39.427Z,1021.87
2023-02-11T03:01:40.126Z,1021.81
2023-02-11T03:06:40.879Z,1021.80
2023-02-11T03:11:41.591Z,1021.73
2023-02-11T03:16:42.382Z,1021.66
2023-02-11T03:21:43.090Z,1021.65
2023-02-11T03:26:43.820Z,1021.68
2023-02-11T03:31:44.673Z,1021.59
2023-02-11T03:36:45.378Z,1021.57
2023-02-11T03:41:46.080Z,1021.60
2023-02-11T03:46:46.793Z,1021.64
2023-02-11T03:51:47.533Z,1021.61
2023-02-11T03:56:48.275Z,1021.57
2023-02-11T04:01:48.996Z,1021.63
2023-02-11T04:06:49.710Z,1021.65
2023-02-11T04:11:50.448Z,1021.60
2023-02-11T04:16:51.141Z,1021.64
2023-02-11T04:21:51.876Z,1021.62
2023-02-11T04:26:59.671Z,1021.59
2023-02-11T04:31:53.479Z,1021.56
2023-02-11T04:36:54.166Z,1021.61
2023-02-11T04:41:54.902Z,1021.52
2023-02-11T04:46:55.653Z,1021.39
2023-02-11T04:51:56.325Z,1021.38
2023-02-11T04:56:57.048Z,1021.21
2023-02-11T05:01:57.824Z,1021.17
2023-02-11T05:06:58.796Z,1021.11
2023-02-11T05:11:58.994Z,1021.02
2023-02-11T05:16:59.906Z,1020.99
2023-02-11T05:22:03.487Z,1020.85
2023-02-11T05:27:01.340Z,1020.73
2023-02-11T05:32:02.131Z,1020.69
2023-02-11T05:37:02.878Z,1020.68
2023-02-11T05:42:03.612Z,1020.62
2023-02-11T05:47:04.341Z,1020.53
2023-02-11T05:52:05.093Z,1020.60
2023-02-11T05:57:05.986Z,1020.65
2023-02-11T06:02:06.625Z,1020.67
2023-02-11T06:07:07.391Z,1020.81
2023-02-11T06:12:08.208Z,1020.81
2023-02-11T06:17:08.915Z,1020.70
2023-02-11T06:22:09.608Z,1020.71
2023-02-11T06:27:10.317Z,1020.69
2023-02-11T06:32:28.114Z,1020.59
2023-02-11T06:37:12.688Z,1020.48
2023-02-11T06:42:12.335Z,1020.43
2023-02-11T06:47:13.009Z,1020.42
2023-02-11T06:52:13.770Z,1020.53
2023-02-11T06:57:14.547Z,1020.55
2023-02-11T07:02:15.414Z,1020.62
2023-02-11T07:07:16.177Z,1020.61
2023-02-11T07:12:16.883Z,1020.50
2023-02-11T07:17:17.518Z,1020.44
2023-02-11T07:22:18.289Z,1020.36
2023-02-11T07:27:18.931Z,1020.34
2023-02-11T07:32:19.775Z,1020.30
2023-02-11T07:37:20.434Z,1020.26
2023-02-11T07:42:21.107Z,1020.25
2023-02-11T07:47:21.887Z,1020.28
2023-02-11T07:52:22.510Z,1020.24
2023-02-11T07:57:23.179Z,1020.31
2023-02-11T08:02:23.958Z,1020.35
2023-02-11T08:07:24.714Z,1020.33
2023-02-11T08:12:25.452Z,1020.55
2023-02-11T08:17:26.131Z,1020.72
2023-02-11T08:22:26.798Z,1020.82
2023-02-11T08:27:27.473Z,1020.70
2023-02-11T08:32:28.208Z,1020.68
2023-02-11T08:37:31.369Z,1020.75
2023-02-11T08:42:29.313Z,1020.85
2023-02-11T08:47:29.962Z,1020.93
2023-02-11T08:52:30.687Z,1020.57
2023-02-11T08:57:31.362Z,1020.58
2023-02-11T09:02:32.137Z,1020.47
2023-02-11T09:07:32.752Z,1020.41
2023-02-11T09:12:33.490Z,1020.57
2023-02-11T09:17:35.195Z,1020.76
2023-02-11T09:22:34.825Z,1020.77
2023-02-11T09:27:35.493Z,1020.96
2023-02-11T09:32:36.205Z,1020.89
2023-02-11T09:37:37.503Z,1020.95
2023-02-11T09:42:37.663Z,1021.03
2023-02-11T09:47:38.330Z,1020.94
2023-02-11T09:52:39.100Z,1021.18
2023-02-11T09:57:39.828Z,1021.12
2023-02-11T10:02:40.498Z,1021.24
2023-02-11T10:07:41.354Z,1021.20
2023-02-11T10:12:42.153Z,1021.26
2023-02-11T10:17:42.842Z,1021.21
2023-02-11T10:22:43.523Z,1021.24
2023-02-11T10:27:44.203Z,1021.27
2023-02-11T10:32:44.876Z,1021.32
2023-02-11T10:37:45.580Z,1021.28
2023-02-11T10:42:48.248Z,1021.15
2023-02-11T10:47:46.929Z,1020.98
2023-02-11T10:52:47.615Z,1021.08
2023-02-11T10:57:49.332Z,1021.13
2023-02-11T11:02:48.981Z,1020.93
2023-02-11T11:07:50.188Z,1020.97
2023-02-11T11:12:50.339Z,1020.98
2023-02-11T11:17:51.038Z,1021.07
2023-02-11T11:22:51.725Z,1020.90
2023-02-11T11:27:52.411Z,1020.72
2023-02-11T11:32:53.085Z,1020.86
2023-02-11T11:37:53.766Z,1020.89
2023-02-11T11:42:54.468Z,1020.88
2023-02-11T11:47:55.166Z,1020.87
2023-02-11T11:52:55.868Z,1020.90
2023-02-11T11:57:56.620Z,1020.88
2023-02-11T12:02:57.377Z,1020.90
2023-02-11T12:07:58.052Z,1020.79
2023-02-11T12:12:58.714Z,1020.80
2023-02-11T12:17:59.402Z,1020.83
2023-02-11T12:23:00.129Z,1020.73
2023-02-11T12:28:00.885Z,1020.80
2023-02-11T12:33:01.679Z,1020.97
2023-02-11T12:38:02.358Z,1020.91
2023-02-11T12:43:03.078Z,1020.93
2023-02-11T12:48:03.735Z,1020.96
2023-02-11T12:53:04.507Z,1020.93
2023-02-11T12:58:05.202Z,1021.03
2023-02-11T13:03:05.876Z,1021.09
2023-02-11T13:08:06.560Z,1021.13
2023-02-11T13:13:07.348Z,1021.12
2023-02-11T13:18:07.992Z,1021.10
2023-02-11T13:23:08.669Z,1021.05
2023-02-11T13:28:09.447Z,1021.24
2023-02-11T13:33:10.207Z,1021.31
2023-02-11T13:38:10.871Z,1021.30
2023-02-11T13:43:11.552Z,1021.30
2023-02-11T13:48:12.352Z,1021.39
2023-02-11T13:53:15.703Z,1021.50
2023-02-11T13:58:13.611Z,1021.47
2023-02-11T14:03:14.293Z,1021.38
2023-02-11T14:08:14.997Z,1021.33
2023-02-11T14:13:15.660Z,1021.36
2023-02-11T14:18:16.337Z,1021.40
2023-02-11T14:23:17.039Z,1021.50
2023-02-11T14:28:17.715Z,1021.53
2023-02-11T14:33:18.395Z,1021.56
2023-02-11T14:38:19.092Z,1021.49
2023-02-11T14:43:19.799Z,1021.49
2023-02-11T14:48:20.598Z,1021.57
2023-02-11T14:53:21.346Z,1021.64
2023-02-11T14:58:22.004Z,1021.73
2023-02-11T15:03:22.803Z,1021.78
2023-02-11T15:08:23.470Z,1021.86
2023-02-11T15:13:24.168Z,1021.83
2023-02-11T15:18:24.819Z,1021.93
2023-02-11T15:23:25.495Z,1021.99
2023-02-11T15:28:26.292Z,1022.12
2023-02-11T15:33:26.954Z,1022.21
2023-02-11T15:38:27.620Z,1022.17
2023-02-11T15:43:28.397Z,1022.21
2023-02-11T15:48:29.112Z,1022.37
2023-02-11T15:53:29.792Z,1022.31
2023-02-11T15:58:30.499Z,1022.31
2023-02-11T16:03:31.150Z,1022.32
2023-02-11T16:08:31.809Z,1022.37
2023-02-11T16:13:32.524Z,1022.38
2023-02-11T16:18:38.859Z,1022.56
2023-02-11T16:23:34.786Z,1022.41
2023-02-11T16:28:34.472Z,1022.38
2023-02-11T16:33:35.864Z,1022.48
2023-02-11T16:38:36.251Z,1022.55
2023-02-11T16:43:36.933Z,1022.63
2023-02-11T16:48:37.659Z,1022.63
2023-02-11T16:53:38.439Z,1022.69
2023-02-11T16:58:39.164Z,1022.80
2023-02-11T17:03:39.915Z,1022.91
2023-02-11T17:08:40.774Z,1023.01
2023-02-11T17:13:41.548Z,1023.05
2023-02-11T17:18:42.256Z,1023.09
2023-02-11T17:23:43.056Z,1023.17
2023-02-11T17:28:43.913Z,1023.15
2023-02-11T17:33:44.616Z,1023.27
2023-02-11T17:38:45.338Z,1023.35
2023-02-11T17:43:46.072Z,1023.35
2023-02-11T17:48:46.777Z,1023.40
2023-02-11T17:53:47.500Z,1023.39
2023-02-11T17:58:48.281Z,1023.53
2023-02-11T18:03:49.054Z,1023.56
2023-02-11T18:08:49.771Z,1023.68
2023-02-11T18:13:50.651Z,1023.80
2023-02-11T18:18:51.437Z,1023.83
2023-02-11T18:23:52.184Z,1023.95
2023-02-11T18:28:52.912Z,1023.98
2023-02-11T18:33:53.699Z,1024.09
2023-02-11T18:38:54.458Z,1024.20
2023-02-11T18:43:55.197Z,1024.25
2023-02-11T18:48:56.405Z,1024.38
2023-02-11T18:53:56.705Z,1024.41
2023-02-11T18:58:57.467Z,1024.48
2023-02-11T19:03:58.287Z,1024.60
2023-02-11T19:09:05.955Z,1024.60
2023-02-11T19:13:59.711Z,1024.62
2023-02-11T19:19:00.494Z,1024.69
2023-02-11T19:24:01.204Z,1024.74
2023-02-11T19:29:01.930Z,1024.83
2023-02-11T19:34:02.646Z,1024.83
2023-02-11T19:39:03.394Z,1024.83
2023-02-11T19:44:04.152Z,1024.90
2023-02-11T19:49:04.898Z,1024.90
2023-02-11T19:54:05.666Z,1024.82
2023-02-11T19:59:06.383Z,1024.83
2023-02-11T20:04:07.210Z,1024.94
2023-02-11T20:09:08.012Z,1025.05
2023-02-11T20:14:08.748Z,1025.18
2023-02-11T20:19:09.473Z,1025.17
2023-02-11T20:24:10.272Z,1025.20
2023-02-11T20:29:11.110Z,1025.32
2023-02-11T20:34:11.811Z,1025.32
2023-02-11T20:39:12.663Z,1025.42
2023-02-11T20:44:13.402Z,1025.48
2023-02-11T20:49:14.127Z,1025.50
2023-02-11T20:54:14.922Z,1025.61
2023-02-11T20:59:15.655Z,1025.63
2023-02-11T21:04:16.397Z,1025.64
2023-02-11T21:09:17.135Z,1025.68
2023-02-11T21:14:17.928Z,1025.77
2023-02-11T21:19:18.720Z,1025.92
2023-02-11T21:24:19.449Z,1025.92
2023-02-11T21:29:20.297Z,1025.97
2023-02-11T21:34:21.054Z,1026.13
2023-02-11T21:39:22.002Z,1026.25
2023-02-11T21:44:22.738Z,1026.31
2023-02-11T21:49:23.500Z,1026.29
2023-02-11T21:54:24.277Z,1026.41
2023-02-11T21:59:25.097Z,1026.49
2023-02-11T22:04:25.840Z,1026.48
2023-02-11T22:09:26.628Z,1026.56
2023-02-11T22:14:27.369Z,1026.64
2023-02-11T22:19:28.113Z,1026.69
2023-02-11T22:24:28.817Z,1026.82
2023-02-11T22:29:29.634Z,1026.87
2023-02-11T22:34:30.385Z,1026.96
2023-02-11T22:39:31.113Z,1026.99
2023-02-11T22:44:31.836Z,1027.09
2023-02-11T22:49:32.632Z,1027.11
2023-02-11T22:54:33.348Z,1027.24
2023-02-11T22:59:34.094Z,1027.27
2023-02-11T23:04:34.798Z,1027.25
2023-02-11T23:09:35.528Z,1027.32
2023-02-11T23:14:36.325Z,1027.43
2023-02-11T23:19:37.051Z,1027.43
2023-02-11T23:24:37.876Z,1027.50
2023-02-11T23:29:38.635Z,1027.50
2023-02-11T23:34:39.331Z,1027.48
2023-02-11T23:39:40.073Z,1027.53
2023-02-11T23:44:40.826Z,1027.57
2023-02-11T23:49:41.522Z,1027.59
2023-02-11T23:54:42.246Z,1027.58
2023-02-11T23:59:43.295Z,1027.59
